createdAt,value
2019-05-15T00:01:05.524Z,3.87
2019-05-15T00:03:39.066Z,2.80
2019-05-15T00:06:09.946Z,3.30
2019-05-15T00:08:41.234Z,3.10
2019-05-15T00:11:12.499Z,2.87
2019-05-15T00:13:43.879Z,2.70
2019-05-15T00:16:15.033Z,2.70
2019-05-15T00:18:48.216Z,2.97
2019-05-15T00:21:19.093Z,3.00
2019-05-15T00:23:53.279Z,3.43
2019-05-15T00:26:24.561Z,3.30
2019-05-15T00:29:09.519Z,3.20
2019-05-15T00:31:29.212Z,3.87
2019-05-15T00:34:00.579Z,2.90
2019-05-15T00:36:33.982Z,2.90
2019-05-15T00:39:08.544Z,3.63
2019-05-15T00:41:50.874Z,3.50
2019-05-15T00:44:12.305Z,2.93
2019-05-15T00:46:43.481Z,2.90
2019-05-15T00:49:14.662Z,2.97
2019-05-15T00:51:48.463Z,3.03
2019-05-15T00:54:19.139Z,3.10
2019-05-15T00:56:50.571Z,2.93
2019-05-15T00:59:25.930Z,2.70
2019-05-15T01:01:54.680Z,3.00
2019-05-15T01:04:27.958Z,3.53
2019-05-15T01:06:58.992Z,2.80
2019-05-15T01:09:30.410Z,3.60
2019-05-15T01:12:01.677Z,2.80
2019-05-15T01:14:32.977Z,2.60
2019-05-15T01:17:04.283Z,2.53
2019-05-15T01:19:37.816Z,2.80
2019-05-15T01:22:08.829Z,2.70
2019-05-15T01:24:40.098Z,2.50
2019-05-15T01:27:11.378Z,2.43
2019-05-15T01:29:45.210Z,2.70
2019-05-15T01:32:15.399Z,2.40
2019-05-15T01:34:48.870Z,2.50
2019-05-15T01:37:19.442Z,2.43
2019-05-15T01:39:50.679Z,2.17
2019-05-15T01:42:21.909Z,2.60
2019-05-15T01:44:53.066Z,3.03
2019-05-15T01:47:24.295Z,2.63
2019-05-15T01:49:55.473Z,2.40
2019-05-15T01:52:27.910Z,2.10
2019-05-15T01:54:59.298Z,2.07
2019-05-15T01:57:30.583Z,2.53
2019-05-15T02:00:01.834Z,3.07
2019-05-15T02:02:33.069Z,3.10
2019-05-15T02:05:04.950Z,3.10
2019-05-15T02:07:38.739Z,2.20
2019-05-15T02:10:10.215Z,2.40
2019-05-15T02:12:41.483Z,2.80
2019-05-15T02:15:13.063Z,2.57
2019-05-15T02:17:44.270Z,3.43
2019-05-15T02:20:16.046Z,2.60
2019-05-15T02:22:48.530Z,2.40
2019-05-15T02:25:19.796Z,3.20
2019-05-15T02:27:50.988Z,2.63
2019-05-15T02:30:28.797Z,2.80
2019-05-15T02:32:55.129Z,3.13
2019-05-15T02:35:29.271Z,2.57
2019-05-15T02:37:59.782Z,2.70
2019-05-15T02:40:31.107Z,2.37
2019-05-15T02:43:02.327Z,3.03
2019-05-15T02:45:36.633Z,3.00
2019-05-15T02:48:08.591Z,3.20
2019-05-15T02:50:39.526Z,2.60
2019-05-15T02:53:10.692Z,3.00
2019-05-15T02:55:41.924Z,2.90
2019-05-15T02:58:13.223Z,3.70
2019-05-15T03:00:49.580Z,2.97
2019-05-15T03:03:20.146Z,3.33
2019-05-15T03:05:50.319Z,3.30
2019-05-15T03:08:21.632Z,3.00
2019-05-15T03:10:52.793Z,3.27
2019-05-15T03:13:24.045Z,3.43
2019-05-15T03:15:55.397Z,2.87
2019-05-15T03:18:28.993Z,2.93
2019-05-15T03:21:00.539Z,3.17
2019-05-15T03:23:31.970Z,2.97
2019-05-15T03:26:04.487Z,3.63
2019-05-15T03:28:38.772Z,3.53
2019-05-15T03:31:35.162Z,3.10
2019-05-15T03:33:45.835Z,3.40
2019-05-15T03:36:14.641Z,3.40
2019-05-15T03:38:46.130Z,3.23
2019-05-15T03:41:19.462Z,3.97
2019-05-15T03:43:50.494Z,3.53
2019-05-15T03:46:21.721Z,3.30
2019-05-15T03:48:54.395Z,3.90
2019-05-15T03:51:28.743Z,3.70
2019-05-15T03:54:00.317Z,3.47
2019-05-15T03:56:31.513Z,3.20
2019-05-15T03:59:02.783Z,3.50
2019-05-15T04:01:42.378Z,3.27
2019-05-15T04:04:09.590Z,3.43
2019-05-15T04:06:40.410Z,3.60
2019-05-15T04:09:11.663Z,3.60
2019-05-15T04:11:42.800Z,4.27
2019-05-15T04:14:14.101Z,3.87
2019-05-15T04:16:45.336Z,3.83
2019-05-15T04:19:19.134Z,3.63
2019-05-15T04:21:49.777Z,3.63
2019-05-15T04:24:21.375Z,3.90
2019-05-15T04:26:53.344Z,2.90
2019-05-15T04:29:24.606Z,3.70
2019-05-15T04:32:02.536Z,4.97
2019-05-15T04:37:01.513Z,5.63
2019-05-15T04:39:32.724Z,4.80
2019-05-15T04:42:03.919Z,4.30
2019-05-15T04:44:35.520Z,4.07
2019-05-15T04:47:09.461Z,4.00
2019-05-15T04:49:40.270Z,3.43
2019-05-15T04:52:11.622Z,4.10
2019-05-15T04:54:42.862Z,3.43
2019-05-15T04:57:14.130Z,2.87
2019-05-15T04:59:45.578Z,3.13
2019-05-15T05:02:25.974Z,4.40
2019-05-15T05:04:49.779Z,4.70
2019-05-15T05:07:21.362Z,6.67
2019-05-15T05:09:52.644Z,8.67
2019-05-15T05:12:24.013Z,6.90
2019-05-15T05:14:55.354Z,4.70
2019-05-15T05:17:28.808Z,6.77
2019-05-15T05:19:59.484Z,4.17
2019-05-15T05:22:30.745Z,4.13
2019-05-15T05:25:08.276Z,5.03
2019-05-15T05:27:39.718Z,3.60
2019-05-15T05:30:11.685Z,4.30
2019-05-15T05:32:43.089Z,3.63
2019-05-15T05:35:14.551Z,3.33
2019-05-15T05:37:48.041Z,3.53
2019-05-15T05:40:19.641Z,3.17
2019-05-15T05:42:50.934Z,2.83
2019-05-15T05:45:22.221Z,2.90
2019-05-15T05:47:53.465Z,3.23
2019-05-15T05:50:39.677Z,2.97
2019-05-15T05:53:11.085Z,4.00
2019-05-15T05:55:42.261Z,2.47
2019-05-15T05:58:13.472Z,3.43
2019-05-15T06:00:48.858Z,3.27
2019-05-15T06:03:20.128Z,2.60
2019-05-15T06:05:51.344Z,2.70
2019-05-15T06:08:22.766Z,2.50
2019-05-15T06:10:53.905Z,2.50
2019-05-15T06:13:28.911Z,2.70
2019-05-15T06:15:59.325Z,2.20
2019-05-15T06:18:30.516Z,2.67
2019-05-15T06:21:01.697Z,2.20
2019-05-15T06:23:35.450Z,3.17
2019-05-15T06:26:09.094Z,2.40
2019-05-15T06:28:39.596Z,1.93
2019-05-15T06:31:10.977Z,2.10
2019-05-15T06:33:42.194Z,1.73
2019-05-15T06:36:13.415Z,1.40
2019-05-15T06:38:44.682Z,1.53
2019-05-15T06:41:18.197Z,1.60
2019-05-15T06:43:49.027Z,1.60
2019-05-15T06:46:20.289Z,1.80
2019-05-15T06:48:51.492Z,1.60
2019-05-15T06:51:22.717Z,1.80
2019-05-15T06:53:53.973Z,1.40
2019-05-15T06:56:28.130Z,1.47
2019-05-15T06:58:59.643Z,1.27
2019-05-15T07:01:30.853Z,1.80
2019-05-15T07:04:02.029Z,1.70
2019-05-15T07:06:33.202Z,1.17
2019-05-15T07:09:05.228Z,1.07
2019-05-15T07:11:38.612Z,1.20
2019-05-15T07:14:09.382Z,1.43
2019-05-15T07:16:40.648Z,1.27
2019-05-15T07:19:11.822Z,1.13
2019-05-15T07:21:43.076Z,1.90
2019-05-15T07:24:14.316Z,1.30
2019-05-15T07:26:48.200Z,1.47
2019-05-15T07:29:18.987Z,1.03
2019-05-15T07:31:53.268Z,1.50
2019-05-15T07:34:24.532Z,1.40
2019-05-15T07:36:55.820Z,1.00
2019-05-15T07:39:28.864Z,1.30
2019-05-15T07:42:00.036Z,0.93
2019-05-15T07:44:34.251Z,1.33
2019-05-15T07:47:05.446Z,1.33
2019-05-15T07:49:38.845Z,1.03
2019-05-15T07:52:09.691Z,1.13
2019-05-15T07:54:40.953Z,1.30
2019-05-15T07:57:12.188Z,1.00
2019-05-15T07:59:43.435Z,1.30
2019-05-15T08:02:14.613Z,1.47
2019-05-15T08:04:48.141Z,1.27
2019-05-15T08:07:18.650Z,1.10
2019-05-15T08:09:49.974Z,1.13
2019-05-15T08:12:21.257Z,1.30
2019-05-15T08:14:52.532Z,1.00
2019-05-15T08:17:25.193Z,1.30
2019-05-15T08:19:58.257Z,1.90
2019-05-15T08:22:29.356Z,1.60
2019-05-15T08:25:00.618Z,1.33
2019-05-15T08:27:31.972Z,1.10
2019-05-15T08:30:03.229Z,0.90
2019-05-15T08:32:34.677Z,1.33
2019-05-15T08:35:08.082Z,1.20
2019-05-15T08:37:39.872Z,1.13
2019-05-15T08:40:11.982Z,1.10
2019-05-15T08:42:43.239Z,0.90
2019-05-15T08:45:15.225Z,1.20
2019-05-15T08:47:48.976Z,1.40
2019-05-15T08:50:19.744Z,1.10
2019-05-15T08:52:50.959Z,1.10
2019-05-15T08:55:22.159Z,1.00
2019-05-15T08:57:55.816Z,1.33
2019-05-15T09:00:29.296Z,1.57
2019-05-15T09:02:59.400Z,1.53
2019-05-15T09:05:30.643Z,1.00
2019-05-15T09:08:01.873Z,0.83
2019-05-15T09:10:33.161Z,0.70
2019-05-15T09:13:04.391Z,1.00
2019-05-15T09:15:39.539Z,1.43
2019-05-15T09:18:15.881Z,0.80
2019-05-15T09:20:43.874Z,1.37
2019-05-15T09:23:15.099Z,1.20
2019-05-15T09:25:49.095Z,1.30
2019-05-15T09:28:22.198Z,1.00
2019-05-15T09:30:53.501Z,1.30
2019-05-15T09:33:24.737Z,1.13
2019-05-15T09:35:58.171Z,1.77
2019-05-15T09:38:29.114Z,1.37
2019-05-15T09:41:00.462Z,1.40
2019-05-15T09:43:31.653Z,1.17
2019-05-15T09:46:02.889Z,1.20
2019-05-15T09:48:34.144Z,1.37
2019-05-15T09:51:05.405Z,1.00
2019-05-15T09:53:39.091Z,0.93
2019-05-15T09:56:09.574Z,1.60
2019-05-15T09:58:43.352Z,1.17
2019-05-15T10:01:14.590Z,1.17
2019-05-15T10:03:48.331Z,1.43
2019-05-15T10:06:20.437Z,1.30
2019-05-15T10:08:51.843Z,1.20
2019-05-15T10:11:23.093Z,1.60
2019-05-15T10:13:54.236Z,1.60
2019-05-15T10:16:25.481Z,1.30
2019-05-15T10:18:58.208Z,1.20
2019-05-15T10:21:32.440Z,1.77
2019-05-15T10:24:02.556Z,1.47
2019-05-15T10:26:30.659Z,1.23
2019-05-15T10:29:01.874Z,1.30
2019-05-15T10:31:38.763Z,1.30
2019-05-15T10:34:09.489Z,0.87
2019-05-15T10:36:40.886Z,1.43
2019-05-15T10:39:12.191Z,1.33
2019-05-15T10:41:43.665Z,1.00
2019-05-15T10:44:14.940Z,1.13
2019-05-15T10:46:48.330Z,1.23
2019-05-15T10:49:19.754Z,1.80
2019-05-15T10:51:50.977Z,1.60
2019-05-15T10:54:22.192Z,1.70
2019-05-15T10:56:53.525Z,2.07
2019-05-15T10:59:24.783Z,1.33
2019-05-15T11:01:58.917Z,1.70
2019-05-15T11:04:29.259Z,1.37
2019-05-15T11:07:00.523Z,1.40
2019-05-15T11:09:31.783Z,1.40
2019-05-15T11:12:02.878Z,2.30
2019-05-15T11:14:33.962Z,1.40
2019-05-15T11:17:05.211Z,1.90
2019-05-15T11:19:40.427Z,1.47
2019-05-15T11:22:09.911Z,1.30
2019-05-15T11:24:41.325Z,1.53
2019-05-15T11:27:12.545Z,2.00
2019-05-15T11:29:43.805Z,1.23
2019-05-15T11:32:15.085Z,1.30
2019-05-15T11:34:49.806Z,1.53
2019-05-15T11:37:21.206Z,1.53
2019-05-15T11:39:52.361Z,1.60
2019-05-15T11:42:23.577Z,1.60
2019-05-15T11:44:54.832Z,1.47
2019-05-15T11:47:27.878Z,1.40
2019-05-15T11:49:59.006Z,1.80
2019-05-15T11:52:36.520Z,1.67
2019-05-15T11:55:08.306Z,1.70
2019-05-15T11:57:46.836Z,1.43
2019-05-15T12:00:20.294Z,1.13
2019-05-15T12:02:48.344Z,1.23
2019-05-15T12:05:21.114Z,1.10
2019-05-15T12:07:52.356Z,1.37
2019-05-15T12:10:24.011Z,1.13
2019-05-15T12:12:55.304Z,1.37
2019-05-15T12:15:27.979Z,1.20
2019-05-15T12:17:59.310Z,1.13
2019-05-15T12:20:30.521Z,1.67
2019-05-15T12:23:01.769Z,1.47
2019-05-15T12:25:33.046Z,1.53
2019-05-15T12:28:04.306Z,1.40
2019-05-15T12:30:35.577Z,1.63
2019-05-15T12:33:09.185Z,1.40
2019-05-15T12:35:40.353Z,1.40
2019-05-15T12:38:14.346Z,1.40
2019-05-15T13:01:17.055Z,1.50
2019-05-15T13:03:42.036Z,1.53
2019-05-15T13:06:13.234Z,1.60
2019-05-15T13:08:44.468Z,1.97
2019-05-15T13:11:17.877Z,1.50
2019-05-15T13:13:48.687Z,2.57
2019-05-15T13:16:20.008Z,1.30
2019-05-15T13:18:51.325Z,1.33
2019-05-15T13:21:22.594Z,1.93
2019-05-15T13:23:53.873Z,1.73
2019-05-15T13:26:27.112Z,1.57
2019-05-15T13:28:58.399Z,1.40
2019-05-15T13:31:29.909Z,1.40
2019-05-15T13:34:01.131Z,1.50
2019-05-15T13:36:32.414Z,1.50
2019-05-15T13:39:03.863Z,1.80
2019-05-15T13:41:35.355Z,1.27
2019-05-15T13:44:08.836Z,1.50
2019-05-15T13:46:39.438Z,1.23
2019-05-15T13:49:10.700Z,1.47
2019-05-15T13:51:42.034Z,1.70
2019-05-15T13:54:13.247Z,1.63
2019-05-15T13:56:44.495Z,1.40
2019-05-15T13:59:15.668Z,1.30
2019-05-15T14:01:48.664Z,1.77
2019-05-15T14:04:19.761Z,1.93
2019-05-15T14:06:50.987Z,1.73
2019-05-15T14:09:25.276Z,1.43
2019-05-15T14:11:59.604Z,1.60
2019-05-15T14:14:30.964Z,1.73
2019-05-15T14:17:02.577Z,1.43
2019-05-15T14:19:33.826Z,1.60
2019-05-15T14:22:07.846Z,1.40
2019-05-15T14:24:38.429Z,1.70
2019-05-15T14:27:09.736Z,1.50
2019-05-15T14:29:40.897Z,1.70
2019-05-15T14:32:53.467Z,1.67
2019-05-15T14:34:51.058Z,1.70
2019-05-15T14:37:22.567Z,1.80
2019-05-15T14:39:53.770Z,1.70
2019-05-15T14:42:25.160Z,1.40
2019-05-15T14:44:59.095Z,1.63
2019-05-15T14:47:29.716Z,1.93
2019-05-15T14:50:01.144Z,2.27
2019-05-15T14:52:32.473Z,2.40
2019-05-15T14:55:03.790Z,1.73
2019-05-15T14:57:35.088Z,1.77
2019-05-15T15:00:08.927Z,2.30
2019-05-15T15:02:39.722Z,1.80
2019-05-15T15:05:11.413Z,1.80
2019-05-15T15:07:42.626Z,1.50
2019-05-15T15:10:14.026Z,1.77
2019-05-15T15:12:45.269Z,1.77
2019-05-15T15:15:18.084Z,2.03
2019-05-15T15:17:52.219Z,1.90
2019-05-15T15:20:23.640Z,1.87
2019-05-15T15:22:54.921Z,2.00
2019-05-15T15:25:26.149Z,1.60
2019-05-15T15:27:58.635Z,2.10
2019-05-15T15:30:30.090Z,1.50
2019-05-15T15:33:04.126Z,2.00
2019-05-15T15:35:38.340Z,1.73
2019-05-15T15:38:36.785Z,1.67
2019-05-15T15:41:00.392Z,1.57
2019-05-15T15:43:31.083Z,1.90
2019-05-15T15:46:02.347Z,2.57
2019-05-15T15:48:33.537Z,1.73
2019-05-15T15:51:04.774Z,1.70
2019-05-15T15:53:36.080Z,1.23
2019-05-15T15:56:10.378Z,1.87
2019-05-15T15:58:40.524Z,1.57
2019-05-15T16:01:11.900Z,1.60
2019-05-15T16:03:43.070Z,1.80
2019-05-15T16:06:14.406Z,1.80
2019-05-15T16:08:53.164Z,1.77
2019-05-15T16:11:18.924Z,1.70
2019-05-15T16:13:50.241Z,1.60
2019-05-15T16:16:21.479Z,1.40
2019-05-15T16:18:52.723Z,1.57
2019-05-15T16:21:24.311Z,1.47
2019-05-15T16:23:55.550Z,1.43
2019-05-15T16:26:29.137Z,1.53
2019-05-15T16:29:01.606Z,1.17
2019-05-15T16:31:33.147Z,1.00
2019-05-15T16:34:04.858Z,1.60
2019-05-15T16:36:38.315Z,1.60
2019-05-15T16:39:12.185Z,1.90
2019-05-15T16:41:43.409Z,1.30
2019-05-15T16:44:14.654Z,1.50
2019-05-15T16:46:47.974Z,1.43
2019-05-15T16:49:19.301Z,1.43
2019-05-15T16:51:50.654Z,1.40
2019-05-15T16:54:21.943Z,1.00
2019-05-15T16:56:53.175Z,1.20
2019-05-15T16:59:24.756Z,1.30
2019-05-15T17:01:56.018Z,1.30
2019-05-15T17:04:28.788Z,1.57
2019-05-15T17:07:00.237Z,1.50
2019-05-15T17:09:31.458Z,1.80
2019-05-15T17:12:02.892Z,1.80
2019-05-15T17:14:34.235Z,1.40
2019-05-15T17:17:07.826Z,1.47
2019-05-15T17:19:38.425Z,1.13
2019-05-15T17:22:09.780Z,1.13
2019-05-15T17:24:41.146Z,1.43
2019-05-15T17:27:12.578Z,1.70
2019-05-15T17:29:43.734Z,1.70
2019-05-15T17:32:18.408Z,1.73
2019-05-15T17:34:49.844Z,1.43
2019-05-15T17:37:21.110Z,1.53
2019-05-15T17:39:55.567Z,1.77
2019-05-15T17:42:28.907Z,1.53
2019-05-15T17:44:59.773Z,1.10
2019-05-15T17:47:33.606Z,1.50
2019-05-15T17:50:05.274Z,1.20
2019-05-15T17:52:38.760Z,1.87
2019-05-15T17:55:09.690Z,1.40
2019-05-15T17:57:42.285Z,1.50
2019-05-15T18:00:14.731Z,1.43
2019-05-15T18:02:48.445Z,1.07
2019-05-15T18:05:19.141Z,1.50
2019-05-15T18:07:50.428Z,1.80
2019-05-15T18:10:22.094Z,1.83
2019-05-15T18:12:58.145Z,1.47
2019-05-15T18:15:28.936Z,1.80
2019-05-15T18:18:03.063Z,1.73
2019-05-15T18:20:34.224Z,1.10
2019-05-15T18:23:08.174Z,1.20
2019-05-15T18:25:38.580Z,1.20
2019-05-15T18:28:09.930Z,1.40
2019-05-15T18:30:41.198Z,1.67
2019-05-15T18:33:12.402Z,1.80
2019-05-15T18:35:43.774Z,1.70
2019-05-15T18:38:15.031Z,1.83
2019-05-15T18:40:48.826Z,1.60
2019-05-15T18:43:23.096Z,1.40
2019-05-15T18:45:54.371Z,1.40
2019-05-15T18:48:25.615Z,1.50
2019-05-15T18:50:58.743Z,2.13
2019-05-15T18:53:29.859Z,2.13
2019-05-15T18:56:01.389Z,2.17
2019-05-15T18:58:32.676Z,1.67
2019-05-15T19:01:03.948Z,2.00
2019-05-15T19:03:35.233Z,1.80
2019-05-15T19:06:08.747Z,2.17
2019-05-15T19:08:39.499Z,2.07
2019-05-15T19:11:10.748Z,2.07
2019-05-15T19:13:42.029Z,1.60
2019-05-15T19:16:13.316Z,1.83
2019-05-15T19:18:44.590Z,1.93
2019-05-15T19:21:15.897Z,1.67
2019-05-15T19:23:47.951Z,1.87
2019-05-15T19:26:19.358Z,2.10
2019-05-15T19:28:50.627Z,1.83
2019-05-15T19:31:26.554Z,1.93
2019-05-15T19:33:54.985Z,2.10
2019-05-15T19:36:27.723Z,2.40
2019-05-15T19:38:59.033Z,2.40
2019-05-15T19:41:30.282Z,2.43
2019-05-15T19:44:08.609Z,2.20
2019-05-15T19:46:39.261Z,2.10
2019-05-15T19:49:12.950Z,2.50
2019-05-15T19:51:48.630Z,2.60
2019-05-15T19:54:20.001Z,2.20
2019-05-15T19:56:51.308Z,2.40
2019-05-15T19:59:22.825Z,2.30
2019-05-15T20:02:15.119Z,2.47
2019-05-15T20:04:52.567Z,2.27
2019-05-15T20:08:07.762Z,2.97
2019-05-15T20:10:39.275Z,1.93
2019-05-15T20:13:10.974Z,2.30
2019-05-15T20:15:43.272Z,2.27
2019-05-15T20:18:14.713Z,2.27
2019-05-15T20:20:47.798Z,2.47
2019-05-15T20:23:34.636Z,2.30
2019-05-15T20:26:11.026Z,2.10
2019-05-15T20:28:49.106Z,2.20
2019-05-15T20:31:20.780Z,2.03
2019-05-15T20:34:02.426Z,2.50
2019-05-15T20:36:25.263Z,2.20
2019-05-15T20:38:58.590Z,2.50
2019-05-15T20:41:29.453Z,2.20
2019-05-15T20:44:00.773Z,2.10
2019-05-15T20:46:32.047Z,2.00
2019-05-15T20:49:03.313Z,1.90
2019-05-15T20:51:35.990Z,2.17
2019-05-15T20:54:08.390Z,2.40
2019-05-15T20:56:39.816Z,2.73
2019-05-15T20:59:11.076Z,2.20
2019-05-15T21:01:42.284Z,2.00
2019-05-15T21:04:20.720Z,2.43
2019-05-15T21:06:48.172Z,2.30
2019-05-15T21:09:19.442Z,1.90
2019-05-15T21:11:50.655Z,2.40
2019-05-15T21:14:21.872Z,2.40
2019-05-15T21:16:53.220Z,2.23
2019-05-15T21:19:24.469Z,2.30
2019-05-15T21:21:55.890Z,2.83
2019-05-15T21:24:28.355Z,3.00
2019-05-15T21:26:59.713Z,2.07
2019-05-15T21:29:31.330Z,2.90
2019-05-15T21:32:02.516Z,2.67
2019-05-15T21:34:38.056Z,2.23
2019-05-15T21:37:08.514Z,2.53
2019-05-15T21:39:39.668Z,2.30
2019-05-15T21:42:10.908Z,2.10
2019-05-15T21:44:42.177Z,2.33
2019-05-15T21:47:13.359Z,2.23
2019-05-15T21:49:44.859Z,2.60
2019-05-15T21:52:18.584Z,1.97
2019-05-15T21:54:50.398Z,2.07
2019-05-15T21:57:33.034Z,2.23
2019-05-15T21:59:54.890Z,2.20
2019-05-15T22:02:26.215Z,2.40
2019-05-15T22:04:59.675Z,2.73
2019-05-15T22:07:30.478Z,2.27
2019-05-15T22:10:01.885Z,2.40
2019-05-15T22:12:33.327Z,2.40
2019-05-15T22:15:04.833Z,1.90
2019-05-15T22:17:38.825Z,2.60
2019-05-15T22:20:10.025Z,2.57
2019-05-15T22:22:41.287Z,1.93
2019-05-15T22:25:13.194Z,2.13
2019-05-15T22:27:44.444Z,1.90
2019-05-15T22:30:16.615Z,2.07
2019-05-15T22:32:49.528Z,2.63
2019-05-15T22:35:21.385Z,2.47
2019-05-15T22:37:52.652Z,2.03
2019-05-15T22:40:23.932Z,2.50
2019-05-15T22:42:55.173Z,2.13
2019-05-15T22:45:28.538Z,2.17
2019-05-15T22:47:59.620Z,2.20
2019-05-15T22:50:30.854Z,1.70
2019-05-15T22:53:02.114Z,2.30
2019-05-15T22:55:33.399Z,2.03
2019-05-15T22:58:04.650Z,1.80
2019-05-15T23:00:35.954Z,2.17
2019-05-15T23:03:08.368Z,2.40
2019-05-15T23:05:39.726Z,2.07
2019-05-15T23:08:10.963Z,2.37
2019-05-15T23:10:42.263Z,2.07
2019-05-15T23:13:13.817Z,2.07
2019-05-15T23:15:45.130Z,2.10
2019-05-15T23:18:17.864Z,2.57
2019-05-15T23:20:49.377Z,1.77
2019-05-15T23:23:20.599Z,2.40
2019-05-15T23:25:51.839Z,2.00
2019-05-15T23:28:23.097Z,2.53
2019-05-15T23:30:54.289Z,2.43
2019-05-15T23:33:25.539Z,2.53
2019-05-15T23:35:58.701Z,2.60
2019-05-15T23:38:29.601Z,2.10
2019-05-15T23:41:00.873Z,2.37
2019-05-15T23:43:32.010Z,2.17
2019-05-15T23:46:03.305Z,2.20
2019-05-15T23:48:34.534Z,1.97
2019-05-15T23:51:08.321Z,2.27
2019-05-15T23:53:38.668Z,2.47
2019-05-15T23:56:09.925Z,2.70
2019-05-15T23:58:41.252Z,2.40
